createdAt,value
2018-07-06T00:01:58.651Z,1.80
2018-07-06T00:04:37.856Z,1.77
2018-07-06T00:07:16.863Z,1.67
2018-07-06T00:09:55.948Z,2.37
2018-07-06T00:12:34.850Z,2.23
2018-07-06T00:15:14.059Z,1.60
2018-07-06T00:17:53.139Z,2.00
2018-07-06T00:20:32.314Z,2.33
2018-07-06T00:23:11.402Z,1.70
2018-07-06T00:25:51.185Z,2.50
2018-07-06T00:28:30.244Z,1.53
2018-07-06T00:31:09.171Z,2.10
2018-07-06T00:33:48.280Z,2.10
2018-07-06T00:36:27.240Z,2.00
2018-07-06T00:39:06.395Z,1.83
2018-07-06T00:41:39.861Z,1.93
2018-07-06T00:44:19.786Z,2.00
2018-07-06T00:46:58.747Z,2.37
2018-07-06T00:49:37.804Z,2.30
2018-07-06T00:52:16.831Z,2.47
2018-07-06T00:54:56.163Z,2.57
2018-07-06T00:57:39.651Z,2.43
2018-07-06T01:00:19.151Z,2.43
2018-07-06T01:02:52.291Z,2.23
2018-07-06T01:05:31.344Z,2.57
2018-07-06T01:08:10.283Z,2.43
2018-07-06T01:10:49.367Z,2.83
2018-07-06T01:13:28.493Z,2.30
2018-07-06T01:16:07.622Z,2.37
2018-07-06T01:18:46.684Z,3.30
2018-07-06T01:21:25.611Z,2.87
2018-07-06T01:24:04.788Z,2.97
2018-07-06T01:26:43.843Z,2.57
2018-07-06T01:29:17.096Z,2.53
2018-07-06T01:31:50.371Z,2.50
2018-07-06T01:34:29.257Z,3.40
2018-07-06T01:37:08.467Z,3.23
2018-07-06T01:39:47.571Z,3.20
2018-07-06T01:42:26.496Z,3.80
2018-07-06T01:45:05.376Z,2.70
2018-07-06T01:47:44.849Z,3.70
2018-07-06T01:50:23.980Z,3.67
2018-07-06T01:53:03.251Z,3.10
2018-07-06T01:55:42.291Z,2.80
2018-07-06T01:58:21.489Z,2.90
2018-07-06T02:00:54.810Z,3.00
2018-07-06T02:03:33.979Z,2.70
2018-07-06T02:06:13.135Z,3.27
2018-07-06T02:08:52.089Z,2.70
2018-07-06T02:11:31.436Z,3.40
2018-07-06T02:14:12.233Z,3.10
2018-07-06T02:16:51.315Z,3.43
2018-07-06T02:19:30.381Z,3.70
2018-07-06T02:22:09.543Z,3.77
2018-07-06T02:24:48.582Z,3.40
2018-07-06T02:27:27.975Z,3.47
2018-07-06T02:30:01.283Z,4.20
2018-07-06T02:32:40.697Z,4.07
2018-07-06T02:35:20.034Z,3.70
2018-07-06T02:37:59.504Z,3.90
2018-07-06T02:40:38.766Z,3.80
2018-07-06T02:43:18.316Z,4.07
2018-07-06T02:45:57.413Z,4.73
2018-07-06T02:48:36.709Z,3.90
2018-07-06T02:51:16.079Z,4.00
2018-07-06T02:53:55.415Z,3.73
2018-07-06T02:56:35.008Z,3.90
2018-07-06T02:59:14.390Z,3.97
2018-07-06T03:01:53.527Z,4.20
2018-07-06T03:04:32.723Z,3.73
2018-07-06T03:07:12.018Z,4.17
2018-07-06T03:09:51.232Z,3.53
2018-07-06T03:12:30.322Z,4.97
2018-07-06T03:15:09.479Z,3.47
2018-07-06T03:17:48.683Z,3.97
2018-07-06T03:20:27.921Z,5.17
2018-07-06T03:23:07.297Z,3.90
2018-07-06T03:25:46.298Z,4.53
2018-07-06T03:28:25.779Z,5.23
2018-07-06T03:31:04.880Z,3.50
2018-07-06T03:33:44.151Z,4.97
2018-07-06T03:36:17.475Z,4.70
2018-07-06T03:38:56.783Z,3.97
2018-07-06T03:41:35.955Z,4.20
2018-07-06T03:44:15.298Z,3.90
2018-07-06T03:46:54.805Z,4.30
2018-07-06T03:49:34.073Z,3.90
2018-07-06T03:52:13.345Z,4.60
2018-07-06T03:54:54.817Z,5.30
2018-07-06T03:57:34.184Z,4.50
2018-07-06T04:00:13.438Z,6.33
2018-07-06T04:02:52.691Z,5.10
2018-07-06T04:05:32.169Z,5.10
2018-07-06T04:08:11.373Z,4.97
2018-07-06T04:10:50.580Z,5.13
2018-07-06T04:13:29.805Z,5.07
2018-07-06T04:16:09.054Z,5.70
2018-07-06T04:18:48.135Z,4.80
2018-07-06T04:21:21.575Z,5.10
2018-07-06T04:24:01.269Z,4.67
2018-07-06T04:26:40.668Z,4.80
2018-07-06T04:29:19.682Z,4.40
2018-07-06T04:31:58.933Z,5.50
2018-07-06T04:34:38.071Z,5.93
2018-07-06T04:37:17.381Z,4.60
2018-07-06T04:39:56.509Z,4.63
2018-07-06T04:42:35.889Z,4.63
2018-07-06T04:45:15.152Z,5.60
2018-07-06T04:47:54.474Z,4.70
2018-07-06T04:50:33.565Z,4.00
2018-07-06T04:53:12.618Z,5.40
2018-07-06T04:55:51.808Z,4.37
2018-07-06T04:58:30.963Z,4.60
2018-07-06T05:01:10.294Z,4.47
2018-07-06T05:03:49.277Z,5.13
2018-07-06T05:06:28.656Z,5.50
2018-07-06T05:09:08.174Z,5.20
2018-07-06T05:11:47.494Z,5.40
2018-07-06T05:14:26.695Z,5.50
2018-07-06T05:17:05.830Z,5.80
2018-07-06T05:19:45.296Z,5.10
2018-07-06T05:22:24.384Z,5.10
2018-07-06T05:25:03.365Z,4.93
2018-07-06T05:27:43.130Z,6.17
2018-07-06T05:30:22.963Z,6.40
2018-07-06T05:33:01.944Z,6.10
2018-07-06T05:35:41.196Z,5.40
2018-07-06T05:38:14.511Z,6.27
2018-07-06T05:40:53.636Z,6.53
2018-07-06T05:43:32.572Z,6.00
2018-07-06T05:46:11.811Z,6.70
2018-07-06T05:48:50.960Z,5.90
2018-07-06T05:51:24.177Z,9.70
2018-07-06T05:54:03.203Z,6.10
2018-07-06T05:56:42.404Z,6.70
2018-07-06T05:59:21.339Z,6.00
2018-07-06T06:02:00.421Z,5.10
2018-07-06T06:04:39.366Z,6.30
2018-07-06T06:07:18.540Z,5.33
2018-07-06T06:09:46.164Z,5.43
2018-07-06T06:12:13.975Z,6.00
2018-07-06T06:14:41.757Z,5.03
2018-07-06T06:17:09.539Z,6.80
2018-07-06T06:19:37.319Z,6.33
2018-07-06T06:22:05.235Z,7.77
2018-07-06T06:24:32.839Z,8.30
2018-07-06T06:27:00.635Z,7.40
2018-07-06T06:29:29.110Z,7.00
2018-07-06T06:31:57.000Z,8.53
2018-07-06T06:34:25.008Z,9.00
2018-07-06T06:36:52.776Z,7.03
2018-07-06T06:39:20.574Z,8.03
2018-07-06T06:41:48.445Z,9.40
2018-07-06T06:44:16.323Z,9.77
2018-07-06T06:46:44.011Z,10.20
2018-07-06T06:49:11.941Z,8.87
2018-07-06T06:51:39.768Z,9.23
2018-07-06T06:54:07.663Z,11.23
2018-07-06T06:56:35.479Z,12.43
2018-07-06T06:59:03.346Z,17.00
2018-07-06T07:01:31.027Z,19.77
2018-07-06T07:03:59.052Z,23.37
2018-07-06T07:06:26.867Z,24.90
2018-07-06T07:08:54.739Z,24.50
2018-07-06T07:11:22.488Z,24.70
2018-07-06T07:13:50.561Z,24.10
2018-07-06T07:16:18.213Z,19.93
2018-07-06T07:18:46.107Z,20.07
2018-07-06T07:21:13.992Z,19.63
2018-07-06T07:23:41.798Z,20.23
2018-07-06T07:26:09.607Z,21.27
2018-07-06T07:28:37.494Z,18.90
2018-07-06T07:31:05.320Z,22.43
2018-07-06T07:33:33.151Z,22.13
2018-07-06T07:36:01.224Z,21.53
2018-07-06T07:38:28.870Z,22.30
2018-07-06T07:40:56.671Z,19.10
2018-07-06T07:43:24.341Z,22.07
2018-07-06T07:45:52.132Z,23.10
2018-07-06T07:48:20.315Z,21.40
2018-07-06T07:50:59.419Z,22.57
2018-07-06T07:53:38.551Z,20.70
2018-07-06T07:56:06.405Z,21.83
2018-07-06T07:58:34.255Z,22.00
2018-07-06T08:01:02.131Z,22.07
2018-07-06T08:03:29.775Z,23.70
2018-07-06T08:05:57.548Z,24.00
2018-07-06T08:08:25.327Z,21.83
2018-07-06T08:10:53.088Z,21.47
2018-07-06T08:13:20.960Z,22.00
2018-07-06T08:15:49.924Z,24.37
2018-07-06T08:18:17.771Z,21.60
2018-07-06T08:20:45.527Z,23.10
2018-07-06T08:23:13.265Z,24.93
2018-07-06T08:25:41.187Z,25.60
2018-07-06T08:28:08.944Z,24.20
2018-07-06T08:30:36.663Z,23.43
2018-07-06T08:33:04.408Z,21.93
2018-07-06T08:35:43.539Z,23.97
2018-07-06T08:38:11.210Z,23.50
2018-07-06T08:40:39.000Z,22.83
2018-07-06T08:43:06.747Z,23.43
2018-07-06T08:45:35.108Z,23.40
2018-07-06T08:48:03.325Z,21.90
2018-07-06T08:50:31.622Z,24.17
2018-07-06T08:53:00.255Z,22.43
2018-07-06T08:55:28.681Z,22.57
2018-07-06T08:57:57.675Z,21.00
2018-07-06T09:00:26.146Z,22.60
2018-07-06T09:02:54.311Z,20.00
2018-07-06T09:05:22.463Z,22.33
2018-07-06T09:07:50.511Z,23.50
2018-07-06T09:10:18.526Z,21.97
2018-07-06T09:12:46.476Z,21.73
2018-07-06T09:15:14.409Z,21.10
2018-07-06T09:17:42.118Z,19.90
2018-07-06T09:20:11.372Z,19.80
2018-07-06T09:22:39.343Z,18.40
2018-07-06T09:25:08.240Z,20.13
2018-07-06T09:27:36.291Z,20.23
2018-07-06T09:30:04.498Z,21.10
2018-07-06T09:32:32.656Z,20.67
2018-07-06T09:35:00.577Z,20.07
2018-07-06T09:37:28.781Z,18.30
2018-07-06T09:39:56.757Z,18.50
2018-07-06T09:42:24.829Z,17.00
2018-07-06T09:44:52.982Z,14.10
2018-07-06T09:47:20.979Z,13.33
2018-07-06T09:49:49.122Z,14.37
2018-07-06T09:52:17.505Z,13.30
2018-07-06T09:54:45.983Z,13.40
2018-07-06T09:57:14.267Z,12.13
2018-07-06T09:59:42.661Z,12.70
2018-07-06T10:02:10.735Z,15.33
2018-07-06T10:04:38.828Z,13.57
2018-07-06T10:07:06.838Z,14.50
2018-07-06T10:09:34.802Z,15.40
2018-07-06T10:12:02.824Z,14.47
2018-07-06T10:14:30.810Z,15.00
2018-07-06T10:16:58.867Z,13.77
2018-07-06T10:19:27.019Z,11.90
2018-07-06T10:21:55.176Z,13.63
2018-07-06T10:24:23.328Z,12.80
2018-07-06T10:26:51.261Z,12.13
2018-07-06T10:29:29.629Z,14.13
2018-07-06T10:32:22.617Z,14.50
2018-07-06T10:34:50.549Z,14.57
2018-07-06T10:37:18.827Z,13.70
2018-07-06T10:39:47.238Z,14.40
2018-07-06T10:42:15.039Z,14.30
2018-07-06T10:44:42.630Z,14.90
2018-07-06T10:47:10.931Z,16.13
2018-07-06T10:49:38.699Z,12.50
2018-07-06T10:52:07.249Z,12.40
2018-07-06T10:54:35.499Z,15.83
2018-07-06T10:57:03.392Z,14.33
2018-07-06T10:59:31.147Z,14.10
2018-07-06T11:01:58.913Z,12.50
2018-07-06T11:04:26.658Z,13.10
2018-07-06T11:06:54.942Z,12.60
2018-07-06T11:09:22.787Z,13.50
2018-07-06T11:11:50.804Z,13.37
2018-07-06T11:14:18.854Z,10.83
2018-07-06T11:16:46.639Z,10.40
2018-07-06T11:19:14.355Z,10.80
2018-07-06T11:21:42.116Z,9.87
2018-07-06T11:24:09.929Z,10.90
2018-07-06T11:26:37.788Z,8.80
2018-07-06T11:29:05.875Z,9.00
2018-07-06T11:31:33.607Z,11.77
2018-07-06T11:34:01.695Z,11.40
2018-07-06T11:36:29.739Z,10.57
2018-07-06T11:38:57.860Z,11.90
2018-07-06T11:41:25.677Z,9.17
2018-07-06T11:43:53.453Z,9.40
2018-07-06T11:46:21.268Z,10.23
2018-07-06T11:48:49.104Z,9.73
2018-07-06T11:51:16.973Z,10.07
2018-07-06T11:53:44.771Z,8.90
2018-07-06T11:56:12.560Z,8.33
2018-07-06T11:58:41.090Z,10.83
2018-07-06T12:01:09.092Z,10.03
2018-07-06T12:03:37.036Z,9.57
2018-07-06T12:06:04.952Z,8.70
2018-07-06T12:08:32.683Z,6.57
2018-07-06T12:11:00.562Z,7.07
2018-07-06T12:13:28.371Z,7.60
2018-07-06T12:15:56.183Z,8.53
2018-07-06T12:18:26.844Z,7.13
2018-07-06T12:20:55.917Z,7.67
2018-07-06T12:23:23.695Z,8.13
2018-07-06T12:25:52.091Z,7.87
2018-07-06T12:28:19.921Z,8.50
2018-07-06T12:30:47.737Z,8.70
2018-07-06T12:33:15.387Z,7.43
2018-07-06T12:35:44.061Z,6.57
2018-07-06T12:38:11.829Z,7.10
2018-07-06T12:40:40.310Z,6.63
2018-07-06T12:43:08.414Z,7.20
2018-07-06T12:45:36.280Z,6.60
2018-07-06T12:48:04.620Z,5.87
2018-07-06T12:50:32.511Z,5.70
2018-07-06T12:53:00.198Z,6.00
2018-07-06T12:55:28.026Z,5.63
2018-07-06T12:57:56.901Z,5.50
2018-07-06T13:00:24.707Z,6.33
2018-07-06T13:02:52.517Z,4.53
2018-07-06T13:05:20.287Z,5.30
2018-07-06T13:07:48.108Z,5.00
2018-07-06T13:10:15.934Z,5.10
2018-07-06T13:12:43.577Z,5.30
2018-07-06T13:15:11.444Z,6.10
2018-07-06T13:17:39.286Z,5.60
2018-07-06T13:20:07.105Z,4.90
2018-07-06T13:22:34.890Z,6.57
2018-07-06T13:25:02.687Z,5.40
2018-07-06T13:27:30.496Z,5.40
2018-07-06T13:29:58.390Z,5.93
2018-07-06T13:32:26.235Z,5.33
2018-07-06T13:34:54.032Z,6.50
2018-07-06T13:37:21.793Z,7.20
2018-07-06T13:39:49.555Z,6.30
2018-07-06T13:42:17.347Z,5.70
2018-07-06T13:44:45.036Z,5.37
2018-07-06T13:47:12.787Z,5.47
2018-07-06T13:49:40.500Z,5.37
2018-07-06T13:52:08.259Z,5.87
2018-07-06T13:54:36.237Z,5.50
2018-07-06T13:57:03.947Z,6.00
2018-07-06T13:59:31.751Z,6.60
2018-07-06T14:01:59.549Z,6.23
2018-07-06T14:04:27.362Z,5.63
2018-07-06T14:06:55.140Z,5.53
2018-07-06T14:09:22.962Z,5.30
2018-07-06T14:11:50.759Z,5.17
2018-07-06T14:14:18.591Z,6.10
2018-07-06T14:16:46.336Z,5.47
2018-07-06T14:19:14.204Z,5.03
2018-07-06T14:21:41.997Z,4.50
2018-07-06T14:24:09.808Z,4.63
2018-07-06T14:26:37.600Z,5.00
2018-07-06T14:29:05.437Z,4.70
2018-07-06T14:31:33.194Z,3.87
2018-07-06T14:34:00.965Z,4.63
2018-07-06T14:36:28.729Z,5.00
2018-07-06T14:38:56.492Z,4.50
2018-07-06T14:41:24.291Z,5.43
2018-07-06T14:43:52.055Z,4.47
2018-07-06T14:46:19.840Z,4.60
2018-07-06T14:48:49.096Z,5.87
2018-07-06T14:51:16.899Z,5.53
2018-07-06T14:53:44.721Z,5.80
2018-07-06T14:56:12.497Z,5.53
2018-07-06T14:58:40.384Z,4.77
2018-07-06T15:01:08.167Z,6.03
2018-07-06T15:03:35.960Z,5.47
2018-07-06T15:06:03.707Z,4.77
2018-07-06T15:08:31.490Z,5.00
2018-07-06T15:10:59.246Z,6.00
2018-07-06T15:13:27.385Z,6.33
2018-07-06T15:15:55.148Z,6.40
2018-07-06T15:18:23.000Z,6.17
2018-07-06T15:20:50.785Z,6.60
2018-07-06T15:23:18.568Z,5.80
2018-07-06T15:25:46.316Z,5.90
2018-07-06T15:28:14.107Z,6.03
2018-07-06T15:30:41.827Z,5.57
2018-07-06T15:33:09.469Z,6.63
2018-07-06T15:35:37.300Z,6.13
2018-07-06T15:38:05.127Z,5.30
2018-07-06T15:40:32.887Z,5.00
2018-07-06T15:43:00.696Z,5.20
2018-07-06T15:45:28.447Z,5.53
2018-07-06T15:47:56.217Z,6.07
2018-07-06T15:50:23.994Z,5.30
2018-07-06T15:52:51.926Z,5.00
2018-07-06T15:55:19.731Z,4.63
2018-07-06T15:57:47.499Z,5.10
2018-07-06T16:00:15.307Z,4.83
2018-07-06T16:02:42.931Z,4.60
2018-07-06T16:05:10.692Z,6.33
2018-07-06T16:07:38.519Z,5.93
2018-07-06T16:10:06.432Z,4.83
2018-07-06T16:12:34.176Z,4.50
2018-07-06T16:15:01.957Z,4.57
2018-07-06T16:17:29.781Z,5.93
2018-07-06T16:19:57.659Z,4.80
2018-07-06T16:22:25.512Z,5.40
2018-07-06T16:24:53.358Z,4.73
2018-07-06T16:27:21.075Z,5.43
2018-07-06T16:29:48.851Z,6.10
2018-07-06T16:32:16.644Z,5.27
2018-07-06T16:34:44.311Z,5.60
2018-07-06T16:37:11.923Z,6.10
2018-07-06T16:39:39.772Z,7.73
2018-07-06T16:42:07.550Z,6.90
2018-07-06T16:44:35.311Z,5.77
2018-07-06T16:47:03.227Z,5.30
2018-07-06T16:49:31.047Z,6.07
2018-07-06T16:51:58.795Z,5.10
2018-07-06T16:54:26.583Z,5.20
2018-07-06T16:56:54.344Z,4.87
2018-07-06T16:59:22.120Z,10.70
2018-07-06T17:01:49.909Z,9.50
2018-07-06T17:04:17.792Z,5.63
2018-07-06T17:06:45.459Z,4.97
2018-07-06T17:09:13.244Z,5.97
2018-07-06T17:11:41.000Z,3.80
2018-07-06T17:14:08.774Z,7.80
2018-07-06T17:16:36.743Z,6.00
2018-07-06T17:19:04.520Z,3.60
2018-07-06T17:21:33.649Z,4.73
2018-07-06T17:24:01.463Z,4.00
2018-07-06T17:26:29.255Z,4.07
2018-07-06T17:28:57.071Z,3.60
2018-07-06T17:31:24.766Z,4.17
2018-07-06T17:33:52.495Z,3.70
2018-07-06T17:36:20.262Z,4.67
2018-07-06T17:38:48.106Z,3.90
2018-07-06T17:41:15.860Z,3.97
2018-07-06T17:43:43.700Z,3.90
2018-07-06T17:46:11.467Z,4.10
2018-07-06T17:48:39.331Z,3.67
2018-07-06T17:51:07.200Z,3.63
2018-07-06T17:53:35.063Z,3.80
2018-07-06T17:56:02.831Z,3.80
2018-07-06T17:58:32.830Z,3.73
2018-07-06T18:01:00.692Z,3.70
2018-07-06T18:03:28.557Z,5.30
2018-07-06T18:05:56.348Z,3.93
2018-07-06T18:08:24.140Z,3.50
2018-07-06T18:10:51.910Z,3.83
2018-07-06T18:13:19.781Z,3.60
2018-07-06T18:15:49.284Z,3.30
2018-07-06T18:18:18.349Z,4.43
2018-07-06T18:20:46.125Z,3.50
2018-07-06T18:23:14.131Z,3.73
2018-07-06T18:25:41.900Z,3.47
2018-07-06T18:28:09.664Z,3.70
2018-07-06T18:30:37.455Z,3.00
2018-07-06T18:33:05.324Z,3.63
2018-07-06T18:35:33.110Z,3.60
2018-07-06T18:38:00.845Z,3.17
2018-07-06T18:40:28.539Z,3.40
2018-07-06T18:42:56.338Z,3.00
2018-07-06T18:45:24.188Z,3.10
2018-07-06T18:47:51.977Z,3.67
2018-07-06T18:50:19.734Z,3.60
2018-07-06T18:52:47.479Z,3.17
2018-07-06T18:55:15.281Z,3.77
2018-07-06T18:57:43.045Z,4.10
2018-07-06T19:00:10.829Z,3.90
2018-07-06T19:02:38.778Z,3.33
2018-07-06T19:05:06.458Z,4.03
2018-07-06T19:07:34.356Z,3.60
2018-07-06T19:10:02.274Z,3.23
2018-07-06T19:12:30.027Z,3.37
2018-07-06T19:14:57.867Z,3.90
2018-07-06T19:17:25.681Z,3.53
2018-07-06T19:19:53.542Z,3.23
2018-07-06T19:22:21.400Z,3.27
2018-07-06T19:24:49.207Z,3.73
2018-07-06T19:27:16.965Z,4.37
2018-07-06T19:29:44.702Z,3.80
2018-07-06T19:32:12.334Z,4.17
2018-07-06T19:34:40.155Z,4.07
2018-07-06T19:37:08.047Z,4.50
2018-07-06T19:39:35.900Z,4.03
2018-07-06T19:42:03.657Z,3.97
2018-07-06T19:44:31.420Z,2.90
2018-07-06T19:46:59.312Z,3.57
2018-07-06T19:49:27.095Z,3.70
2018-07-06T19:51:54.946Z,4.17
2018-07-06T19:54:23.331Z,4.10
2018-07-06T19:56:51.115Z,3.93
2018-07-06T19:59:18.953Z,4.30
2018-07-06T20:01:46.781Z,3.80
2018-07-06T20:04:14.586Z,4.00
2018-07-06T20:06:42.371Z,4.30
2018-07-06T20:09:10.144Z,3.90
2018-07-06T20:11:37.972Z,3.63
2018-07-06T20:14:05.769Z,4.03
2018-07-06T20:16:33.546Z,3.77
2018-07-06T20:19:01.923Z,3.63
2018-07-06T20:21:29.709Z,4.20
2018-07-06T20:23:57.525Z,4.03
2018-07-06T20:26:25.318Z,4.30
2018-07-06T20:28:53.122Z,3.77
2018-07-06T20:31:20.895Z,4.17
2018-07-06T20:33:48.788Z,3.97
2018-07-06T20:36:16.580Z,3.83
2018-07-06T20:38:44.287Z,4.10
2018-07-06T20:41:12.172Z,4.77
2018-07-06T20:43:40.179Z,4.37
2018-07-06T20:46:07.968Z,3.90
2018-07-06T20:48:35.594Z,5.40
2018-07-06T20:51:03.485Z,5.20
2018-07-06T20:53:31.256Z,3.90
2018-07-06T20:55:59.515Z,4.80
2018-07-06T20:58:27.911Z,3.87
2018-07-06T21:00:56.203Z,4.20
2018-07-06T21:03:24.348Z,3.97
2018-07-06T21:05:52.507Z,4.40
2018-07-06T21:08:20.512Z,4.90
2018-07-06T21:10:48.591Z,4.60
2018-07-06T21:13:16.490Z,4.60
2018-07-06T21:15:44.690Z,4.87
2018-07-06T21:18:12.888Z,5.50
2018-07-06T21:20:41.014Z,4.23
2018-07-06T21:23:09.332Z,4.90
2018-07-06T21:25:37.709Z,4.30
2018-07-06T21:28:05.862Z,4.00
2018-07-06T21:30:34.857Z,4.43
2018-07-06T21:33:02.802Z,5.10
2018-07-06T21:35:31.072Z,5.67
2018-07-06T21:37:59.129Z,4.90
2018-07-06T21:40:27.150Z,4.90
2018-07-06T21:42:55.125Z,5.70
2018-07-06T21:45:23.230Z,5.13
2018-07-06T21:47:51.107Z,6.27
2018-07-06T21:50:19.648Z,5.03
2018-07-06T21:52:47.781Z,5.70
2018-07-06T21:55:16.213Z,5.77
2018-07-06T21:57:44.511Z,5.33
2018-07-06T22:00:12.548Z,5.80
2018-07-06T22:02:40.824Z,4.93
2018-07-06T22:05:08.931Z,5.77
2018-07-06T22:07:37.187Z,4.80
2018-07-06T22:10:05.550Z,5.47
2018-07-06T22:12:34.108Z,6.40
2018-07-06T22:15:02.025Z,5.13
2018-07-06T22:17:29.891Z,5.17
2018-07-06T22:19:57.797Z,5.97
2018-07-06T22:22:25.619Z,5.60
2018-07-06T22:24:53.335Z,6.07
2018-07-06T22:27:21.144Z,5.63
2018-07-06T22:29:48.992Z,5.97
2018-07-06T22:32:16.760Z,5.43
2018-07-06T22:34:45.667Z,6.47
2018-07-06T22:37:13.489Z,5.20
2018-07-06T22:39:41.332Z,4.90
2018-07-06T22:42:09.392Z,5.33
2018-07-06T22:44:37.487Z,4.90
2018-07-06T22:47:05.389Z,6.40
2018-07-06T22:49:33.209Z,5.60
2018-07-06T22:52:00.867Z,5.97
2018-07-06T22:54:28.487Z,5.90
2018-07-06T22:56:56.304Z,5.67
2018-07-06T22:59:23.922Z,6.53
2018-07-06T23:01:51.816Z,6.10
2018-07-06T23:04:19.449Z,5.80
2018-07-06T23:06:47.321Z,5.97
2018-07-06T23:09:15.111Z,5.87
2018-07-06T23:11:42.834Z,6.30
2018-07-06T23:14:10.652Z,5.70
2018-07-06T23:16:38.310Z,6.83
2018-07-06T23:19:05.957Z,6.10
2018-07-06T23:21:33.802Z,5.50
2018-07-06T23:24:01.656Z,6.33
2018-07-06T23:26:29.475Z,7.13
2018-07-06T23:28:57.099Z,6.00
2018-07-06T23:31:24.919Z,6.80
2018-07-06T23:33:52.701Z,6.00
2018-07-06T23:36:20.588Z,7.23
2018-07-06T23:38:48.376Z,6.33
2018-07-06T23:41:16.060Z,6.73
2018-07-06T23:43:43.703Z,6.17
2018-07-06T23:46:11.589Z,6.70
2018-07-06T23:48:39.331Z,6.93
2018-07-06T23:51:07.203Z,7.20
2018-07-06T23:53:34.958Z,6.50
2018-07-06T23:56:02.800Z,7.17
2018-07-06T23:58:30.635Z,6.90
